createdAt,value
2019-05-16T00:00:01.365Z,7.84
2019-05-16T00:02:33.923Z,7.83
2019-05-16T00:05:08.370Z,7.81
2019-05-16T00:07:42.660Z,7.79
2019-05-16T00:10:18.719Z,7.74
2019-05-16T00:12:51.878Z,7.81
2019-05-16T00:15:24.560Z,7.77
2019-05-16T00:17:58.653Z,7.80
2019-05-16T00:20:33.120Z,7.79
2019-05-16T00:23:07.789Z,7.76
2019-05-16T00:25:39.755Z,7.76
2019-05-16T00:28:11.973Z,7.76
2019-05-16T00:30:44.097Z,7.70
2019-05-16T00:33:18.390Z,7.74
2019-05-16T00:36:02.153Z,7.76
2019-05-16T00:38:27.612Z,7.71
2019-05-16T00:40:59.876Z,7.74
2019-05-16T00:43:32.250Z,7.75
2019-05-16T00:46:04.632Z,7.77
2019-05-16T00:48:38.182Z,7.75
2019-05-16T00:51:11.365Z,7.74
2019-05-16T00:53:43.826Z,7.75
2019-05-16T00:56:18.624Z,7.71
2019-05-16T00:58:51.979Z,7.75
2019-05-16T01:01:24.377Z,7.79
2019-05-16T01:03:58.505Z,7.76
2019-05-16T01:06:30.500Z,7.69
2019-05-16T01:09:02.880Z,7.79
2019-05-16T01:11:38.039Z,7.76
2019-05-16T01:14:10.015Z,7.75
2019-05-16T01:16:42.319Z,7.70
2019-05-16T01:19:14.737Z,7.67
2019-05-16T01:21:48.359Z,7.70
2019-05-16T01:24:22.152Z,7.73
2019-05-16T01:26:57.780Z,7.72
2019-05-16T01:29:30.823Z,7.74
2019-05-16T01:32:03.227Z,7.75
2019-05-16T01:34:37.808Z,7.69
2019-05-16T01:37:10.268Z,7.72
2019-05-16T01:39:43.026Z,7.67
2019-05-16T01:42:18.283Z,7.64
2019-05-16T01:44:51.158Z,7.64
2019-05-16T01:47:24.311Z,7.66
2019-05-16T01:49:58.042Z,7.65
2019-05-16T01:52:30.853Z,7.59
2019-05-16T01:55:03.787Z,7.61
2019-05-16T01:57:35.844Z,7.57
2019-05-16T02:00:09.459Z,7.50
2019-05-16T02:02:42.381Z,7.48
2019-05-16T02:05:14.438Z,7.47
2019-05-16T02:07:48.022Z,7.49
2019-05-16T02:10:21.322Z,7.51
2019-05-16T02:12:54.088Z,7.50
2019-05-16T02:15:28.510Z,7.52
2019-05-16T02:18:01.203Z,7.46
2019-05-16T02:20:33.725Z,7.48
2019-05-16T02:23:08.077Z,7.45
2019-05-16T02:25:40.940Z,7.34
2019-05-16T02:28:13.886Z,7.37
2019-05-16T02:30:46.538Z,7.34
2019-05-16T02:33:21.309Z,7.32
2019-05-16T02:35:55.807Z,7.35
2019-05-16T02:38:31.501Z,7.40
2019-05-16T02:41:03.392Z,7.37
2019-05-16T02:43:36.168Z,7.43
2019-05-16T02:46:11.897Z,7.42
2019-05-16T02:48:43.874Z,7.35
2019-05-16T02:51:16.039Z,7.33
2019-05-16T02:53:50.998Z,7.41
2019-05-16T02:56:23.294Z,7.40
2019-05-16T02:58:55.967Z,7.42
2019-05-16T03:01:31.507Z,7.38
2019-05-16T03:04:03.190Z,7.40
2019-05-16T03:06:41.033Z,7.36
2019-05-16T03:09:13.309Z,7.36
2019-05-16T03:11:46.736Z,7.35
2019-05-16T03:14:21.697Z,7.35
2019-05-16T03:16:57.208Z,7.36
2019-05-16T03:19:33.007Z,7.36
2019-05-16T03:22:07.750Z,7.38
2019-05-16T03:24:42.067Z,7.37
2019-05-16T03:27:15.091Z,7.40
2019-05-16T03:29:50.479Z,7.31
2019-05-16T03:32:24.094Z,7.39
2019-05-16T03:34:56.325Z,7.36
2019-05-16T03:37:30.738Z,7.32
2019-05-16T03:40:03.134Z,7.30
2019-05-16T03:42:36.261Z,7.26
2019-05-16T03:45:10.540Z,7.36
2019-05-16T03:47:42.758Z,7.38
2019-05-16T03:50:15.517Z,7.36
2019-05-16T03:52:50.802Z,7.44
2019-05-16T03:55:23.783Z,7.42
2019-05-16T03:57:56.756Z,7.38
2019-05-16T04:00:53.054Z,7.38
2019-05-16T04:03:28.425Z,7.38
2019-05-16T04:06:01.163Z,7.36
2019-05-16T04:08:34.353Z,7.42
2019-05-16T04:11:07.184Z,7.38
2019-05-16T04:13:41.169Z,7.39
2019-05-16T04:16:13.936Z,7.41
2019-05-16T04:18:46.710Z,7.44
2019-05-16T04:21:21.917Z,7.46
2019-05-16T04:23:53.147Z,7.46
2019-05-16T04:26:25.794Z,7.46
2019-05-16T04:29:00.781Z,7.48
2019-05-16T04:31:33.409Z,7.49
2019-05-16T04:34:05.803Z,7.49
2019-05-16T04:36:40.549Z,7.49
2019-05-16T04:39:12.892Z,7.48
2019-05-16T04:41:45.274Z,7.51
2019-05-16T04:44:21.062Z,7.53
2019-05-16T04:46:54.289Z,7.55
2019-05-16T04:49:26.895Z,7.54
2019-05-16T04:52:00.586Z,7.59
2019-05-16T04:54:41.876Z,7.57
2019-05-16T04:57:13.544Z,7.55
2019-05-16T04:59:46.017Z,7.50
2019-05-16T05:02:21.079Z,7.44
2019-05-16T05:04:52.153Z,7.49
2019-05-16T05:07:25.527Z,7.51
2019-05-16T05:10:00.405Z,7.56
2019-05-16T05:12:32.378Z,7.59
2019-05-16T05:15:05.200Z,7.63
2019-05-16T05:17:40.917Z,7.65
2019-05-16T05:20:12.552Z,7.69
2019-05-16T05:22:45.211Z,7.79
2019-05-16T05:25:20.240Z,7.82
2019-05-16T05:27:52.303Z,7.78
2019-05-16T05:30:24.587Z,7.84
2019-05-16T05:32:56.891Z,7.99
2019-05-16T05:35:31.090Z,8.09
2019-05-16T05:38:04.339Z,8.15
2019-05-16T05:40:36.503Z,8.18
2019-05-16T05:43:10.555Z,8.27
2019-05-16T05:45:43.025Z,8.33
2019-05-16T05:48:16.221Z,8.46
2019-05-16T05:50:50.671Z,8.57
2019-05-16T05:53:23.761Z,8.62
2019-05-16T05:55:54.771Z,8.81
2019-05-16T05:58:30.502Z,8.98
2019-05-16T06:01:02.037Z,9.00
2019-05-16T06:03:34.556Z,8.98
2019-05-16T06:06:07.368Z,9.19
2019-05-16T06:08:41.019Z,9.37
2019-05-16T06:11:14.311Z,9.25
2019-05-16T06:13:46.803Z,9.43
2019-05-16T06:16:20.474Z,9.49
2019-05-16T06:18:56.712Z,9.37
2019-05-16T06:21:33.092Z,9.45
2019-05-16T06:24:03.236Z,9.64
2019-05-16T06:26:35.856Z,9.89
2019-05-16T06:29:10.489Z,9.44
2019-05-16T06:31:43.036Z,9.95
2019-05-16T06:34:15.538Z,10.01
2019-05-16T06:36:47.862Z,10.16
2019-05-16T06:39:20.311Z,10.05
2019-05-16T06:41:53.001Z,10.20
2019-05-16T06:44:25.684Z,10.27
2019-05-16T06:47:12.618Z,10.23
2019-05-16T06:49:32.852Z,10.23
2019-05-16T06:52:19.740Z,10.71
2019-05-16T06:54:56.482Z,10.83
2019-05-16T06:57:30.156Z,10.75
2019-05-16T07:00:03.245Z,11.04
2019-05-16T07:02:35.989Z,10.94
2019-05-16T07:05:10.176Z,10.99
2019-05-16T07:07:46.401Z,11.37
2019-05-16T07:10:20.576Z,11.26
2019-05-16T07:12:53.212Z,11.19
2019-05-16T07:15:25.295Z,11.38
2019-05-16T07:17:59.726Z,11.50
2019-05-16T07:20:32.786Z,11.61
2019-05-16T07:23:07.391Z,11.80
2019-05-16T07:25:43.071Z,11.72
2019-05-16T07:28:15.976Z,12.22
2019-05-16T07:30:50.055Z,12.16
2019-05-16T07:33:22.426Z,12.45
2019-05-16T07:35:55.177Z,12.58
2019-05-16T07:38:27.976Z,12.86
2019-05-16T07:41:00.366Z,12.94
2019-05-16T07:43:32.799Z,12.74
2019-05-16T07:46:05.216Z,12.86
2019-05-16T07:48:40.385Z,12.60
2019-05-16T07:51:12.551Z,12.81
2019-05-16T07:53:44.946Z,13.11
2019-05-16T07:56:17.303Z,13.29
2019-05-16T07:58:50.867Z,13.00
2019-05-16T08:01:23.387Z,12.80
2019-05-16T08:04:00.086Z,13.39
2019-05-16T08:06:34.142Z,13.20
2019-05-16T08:09:12.028Z,13.43
2019-05-16T08:11:43.980Z,13.43
2019-05-16T08:14:16.665Z,13.37
2019-05-16T08:16:51.719Z,13.58
2019-05-16T08:19:25.448Z,14.05
2019-05-16T08:21:58.207Z,14.02
2019-05-16T08:24:36.054Z,13.91
2019-05-16T08:27:06.674Z,14.23
2019-05-16T08:29:40.402Z,14.12
2019-05-16T08:32:13.878Z,14.07
2019-05-16T08:34:44.941Z,14.01
2019-05-16T08:39:51.444Z,13.43
2019-05-16T08:42:23.867Z,13.99
2019-05-16T08:45:01.167Z,13.66
2019-05-16T08:47:32.437Z,14.27
2019-05-16T08:50:12.677Z,14.20
2019-05-16T08:52:43.455Z,13.90
2019-05-16T08:55:16.713Z,14.01
2019-05-16T08:57:53.036Z,14.32
2019-05-16T09:00:26.472Z,14.48
2019-05-16T09:03:01.774Z,14.07
2019-05-16T09:05:34.522Z,14.42
2019-05-16T09:08:09.027Z,14.48
2019-05-16T09:10:28.429Z,13.58
2019-05-16T09:10:55.772Z,14.12
2019-05-16T09:13:20.259Z,14.09
2019-05-16T09:15:51.604Z,13.66
2019-05-16T09:18:23.642Z,13.95
2019-05-16T09:20:57.831Z,14.26
2019-05-16T09:23:31.407Z,14.02
2019-05-16T09:26:07.068Z,14.51
2019-05-16T09:28:38.958Z,14.25
2019-05-16T09:31:09.506Z,13.60
2019-05-16T09:33:40.427Z,13.70
2019-05-16T09:36:11.413Z,13.54
2019-05-16T09:38:44.304Z,13.54
2019-05-16T09:41:16.881Z,13.70
2019-05-16T09:43:49.017Z,13.45
2019-05-16T09:46:20.047Z,13.56
2019-05-16T09:49:13.010Z,12.88
2019-05-16T09:51:27.176Z,12.51
2019-05-16T09:53:58.391Z,13.13
2019-05-16T09:56:29.884Z,13.16
2019-05-16T09:59:00.592Z,13.39
2019-05-16T10:01:31.279Z,14.11
2019-05-16T10:04:03.579Z,13.90
2019-05-16T10:06:36.933Z,13.47
2019-05-16T10:09:08.059Z,13.55
2019-05-16T10:11:41.656Z,13.70
2019-05-16T10:14:12.324Z,13.64
2019-05-16T10:16:43.368Z,13.46
2019-05-16T10:19:16.902Z,13.66
2019-05-16T10:21:47.440Z,13.64
2019-05-16T10:24:18.118Z,13.87
2019-05-16T10:26:53.810Z,14.01
2019-05-16T10:29:21.557Z,13.93
2019-05-16T10:31:53.570Z,13.75
2019-05-16T10:34:26.639Z,13.87
2019-05-16T10:37:01.152Z,13.55
2019-05-16T10:39:31.831Z,13.49
2019-05-16T10:42:03.745Z,14.02
2019-05-16T10:44:38.524Z,13.61
2019-05-16T10:47:08.008Z,13.40
2019-05-16T10:49:41.867Z,13.46
2019-05-16T10:52:12.690Z,13.72
2019-05-16T10:54:57.288Z,13.69
2019-05-16T10:57:18.684Z,13.50
2019-05-16T11:00:05.308Z,13.19
2019-05-16T11:02:27.558Z,12.86
2019-05-16T11:05:08.435Z,12.95
2019-05-16T11:07:31.261Z,13.25
2019-05-16T11:10:03.716Z,13.15
2019-05-16T11:12:47.551Z,13.33
2019-05-16T11:15:12.495Z,13.40
2019-05-16T11:17:43.153Z,13.45
2019-05-16T11:20:19.663Z,13.45
2019-05-16T11:22:48.732Z,13.06
2019-05-16T11:25:28.733Z,13.08
2019-05-16T11:27:53.556Z,12.85
2019-05-16T11:30:27.821Z,12.72
2019-05-16T11:32:57.831Z,13.01
2019-05-16T11:35:29.307Z,12.93
2019-05-16T11:38:00.742Z,12.73
2019-05-16T11:40:32.018Z,12.80
2019-05-16T11:43:11.409Z,12.82
2019-05-16T11:45:37.028Z,12.84
2019-05-16T11:48:08.457Z,12.88
2019-05-16T11:50:40.316Z,12.51
2019-05-16T11:53:11.357Z,12.27
2019-05-16T11:55:52.114Z,12.72
2019-05-16T11:58:18.005Z,13.10
2019-05-16T12:00:48.558Z,13.08
2019-05-16T12:03:19.747Z,12.70
2019-05-16T12:05:51.131Z,12.44
2019-05-16T12:08:21.819Z,12.59
2019-05-16T12:10:53.172Z,12.78
2019-05-16T12:13:28.545Z,12.70
2019-05-16T12:15:56.814Z,11.63
2019-05-16T12:18:27.500Z,11.86
2019-05-16T12:20:58.771Z,11.86
2019-05-16T12:23:29.746Z,11.57
2019-05-16T12:26:00.669Z,11.50
2019-05-16T12:28:32.208Z,11.32
2019-05-16T12:31:03.073Z,11.22
2019-05-16T12:33:37.027Z,11.47
2019-05-16T12:36:07.993Z,11.64
2019-05-16T12:38:39.006Z,11.60
2019-05-16T12:41:10.034Z,11.54
2019-05-16T12:43:49.314Z,11.34
2019-05-16T12:46:14.337Z,11.54
2019-05-16T12:48:47.453Z,11.80
2019-05-16T12:51:18.209Z,11.62
2019-05-16T12:53:49.870Z,11.79
2019-05-16T12:56:39.950Z,11.54
2019-05-16T12:59:12.082Z,11.67
2019-05-16T13:01:43.484Z,11.82
2019-05-16T13:04:14.256Z,11.48
2019-05-16T13:06:47.093Z,11.38
2019-05-16T13:09:18.602Z,11.38
2019-05-16T13:11:49.898Z,11.30
2019-05-16T13:14:21.221Z,11.15
2019-05-16T13:16:52.210Z,11.26
2019-05-16T13:19:22.979Z,11.23
2019-05-16T13:21:53.802Z,11.20
2019-05-16T13:24:27.663Z,11.19
2019-05-16T13:26:57.490Z,11.13
2019-05-16T13:29:28.513Z,11.28
2019-05-16T13:31:59.515Z,11.36
2019-05-16T13:34:30.612Z,11.45
2019-05-16T13:37:01.356Z,11.34
2019-05-16T13:39:32.028Z,11.53
2019-05-16T13:42:04.236Z,11.57
2019-05-16T13:44:37.509Z,11.61
2019-05-16T13:47:07.845Z,11.54
2019-05-16T13:49:39.122Z,11.32
2019-05-16T13:52:10.996Z,11.60
2019-05-16T13:54:43.946Z,11.39
2019-05-16T13:57:17.173Z,11.40
2019-05-16T13:59:48.059Z,11.22
2019-05-16T14:02:18.858Z,10.97
2019-05-16T14:04:51.869Z,10.92
2019-05-16T14:07:23.217Z,10.82
2019-05-16T14:09:54.232Z,10.79
2019-05-16T14:12:26.791Z,10.91
2019-05-16T14:14:59.083Z,10.83
2019-05-16T14:17:30.018Z,10.83
2019-05-16T14:20:01.672Z,10.84
2019-05-16T14:22:33.197Z,10.90
2019-05-16T14:25:07.105Z,10.63
2019-05-16T14:27:40.000Z,10.60
2019-05-16T14:30:17.547Z,10.58
2019-05-16T14:32:50.744Z,10.41
2019-05-16T14:35:21.237Z,10.41
2019-05-16T14:37:57.455Z,10.61
2019-05-16T14:40:24.781Z,10.33
2019-05-16T14:42:58.278Z,10.40
2019-05-16T14:45:30.252Z,10.48
2019-05-16T14:48:00.964Z,10.45
2019-05-16T14:50:31.749Z,10.51
2019-05-16T14:53:02.843Z,10.42
2019-05-16T14:55:33.956Z,10.32
2019-05-16T14:58:07.162Z,10.42
2019-05-16T15:00:38.443Z,10.24
2019-05-16T15:03:11.602Z,10.43
2019-05-16T15:05:43.238Z,10.59
2019-05-16T15:08:14.182Z,10.65
2019-05-16T15:10:46.841Z,10.72
2019-05-16T15:13:17.964Z,10.65
2019-05-16T15:15:48.880Z,10.44
2019-05-16T15:18:20.133Z,10.35
2019-05-16T15:20:51.169Z,10.24
2019-05-16T15:23:22.124Z,10.05
2019-05-16T15:25:53.336Z,10.26
2019-05-16T15:28:27.695Z,10.18
2019-05-16T15:30:57.522Z,10.23
2019-05-16T15:33:28.615Z,10.32
2019-05-16T15:36:02.584Z,10.22
2019-05-16T15:38:36.406Z,10.17
2019-05-16T15:41:08.302Z,10.20
2019-05-16T15:43:39.665Z,10.18
2019-05-16T15:46:11.129Z,10.03
2019-05-16T15:48:43.294Z,9.91
2019-05-16T15:51:16.610Z,10.01
2019-05-16T15:53:47.740Z,10.20
2019-05-16T15:56:19.070Z,10.17
2019-05-16T15:58:49.770Z,9.99
2019-05-16T16:01:20.456Z,9.99
2019-05-16T16:03:53.143Z,10.03
2019-05-16T16:06:24.078Z,9.96
2019-05-16T16:08:56.047Z,10.04
2019-05-16T16:11:27.353Z,10.14
2019-05-16T16:13:58.680Z,10.08
2019-05-16T16:16:29.365Z,9.97
2019-05-16T16:19:00.687Z,9.88
2019-05-16T16:21:31.845Z,9.99
2019-05-16T16:24:05.150Z,10.11
2019-05-16T16:26:38.188Z,10.13
2019-05-16T16:29:08.707Z,10.03
2019-05-16T16:31:40.000Z,10.00
2019-05-16T16:34:11.366Z,10.06
2019-05-16T16:36:42.822Z,9.98
2019-05-16T16:39:14.074Z,9.90
2019-05-16T16:41:47.575Z,9.97
2019-05-16T16:44:18.237Z,9.88
2019-05-16T16:46:50.186Z,9.77
2019-05-16T16:49:21.675Z,9.92
2019-05-16T16:51:52.743Z,9.97
2019-05-16T16:54:23.840Z,9.93
2019-05-16T16:56:55.630Z,9.92
2019-05-16T16:59:28.067Z,9.80
2019-05-16T17:01:59.664Z,9.77
2019-05-16T17:04:32.719Z,9.64
2019-05-16T17:07:03.769Z,9.74
2019-05-16T17:09:37.053Z,9.82
2019-05-16T17:12:07.477Z,9.72
2019-05-16T17:14:38.739Z,9.66
2019-05-16T17:17:09.467Z,9.54
2019-05-16T17:19:41.348Z,9.59
2019-05-16T17:22:17.371Z,9.65
2019-05-16T17:24:47.169Z,9.67
2019-05-16T17:27:18.706Z,9.70
2019-05-16T17:29:49.656Z,9.63
2019-05-16T17:32:20.583Z,9.26
2019-05-16T17:34:51.537Z,9.09
2019-05-16T17:37:22.935Z,9.30
2019-05-16T17:39:54.036Z,9.52
2019-05-16T17:42:30.918Z,9.38
2019-05-16T17:45:02.020Z,9.07
2019-05-16T17:47:32.999Z,9.03
2019-05-16T17:50:06.217Z,8.95
2019-05-16T17:52:37.351Z,8.98
2019-05-16T17:55:08.537Z,9.14
2019-05-16T17:57:39.603Z,9.12
2019-05-16T18:00:12.780Z,8.88
2019-05-16T18:02:43.282Z,8.86
2019-05-16T18:05:16.744Z,8.94
2019-05-16T18:07:51.356Z,8.96
2019-05-16T18:10:22.953Z,8.90
2019-05-16T18:12:56.859Z,8.80
2019-05-16T18:15:27.547Z,8.83
2019-05-16T18:17:59.002Z,8.61
2019-05-16T18:20:30.290Z,8.59
2019-05-16T18:23:01.294Z,8.78
2019-05-16T18:25:33.213Z,8.83
2019-05-16T18:28:07.700Z,8.77
2019-05-16T18:30:38.023Z,8.84
2019-05-16T18:33:09.787Z,8.64
2019-05-16T18:35:40.842Z,8.69
2019-05-16T18:38:13.520Z,8.71
2019-05-16T18:40:47.365Z,8.62
2019-05-16T18:43:21.235Z,8.59
2019-05-16T18:45:53.758Z,8.66
2019-05-16T18:48:27.290Z,8.49
2019-05-16T18:50:58.983Z,8.33
2019-05-16T18:53:29.984Z,8.25
2019-05-16T18:56:00.987Z,8.37
2019-05-16T18:58:31.918Z,8.45
2019-05-16T19:01:02.964Z,8.48
2019-05-16T19:03:34.028Z,8.53
2019-05-16T19:06:07.912Z,8.42
2019-05-16T19:08:40.347Z,8.57
2019-05-16T19:11:11.009Z,8.51
2019-05-16T19:13:42.030Z,8.45
2019-05-16T19:16:13.343Z,8.49
2019-05-16T19:18:44.047Z,8.41
2019-05-16T19:21:16.892Z,8.45
2019-05-16T19:23:47.711Z,8.36
2019-05-16T19:26:19.709Z,8.41
2019-05-16T19:28:51.335Z,8.39
2019-05-16T19:31:22.865Z,8.36
2019-05-16T19:33:56.526Z,8.20
2019-05-16T19:36:27.252Z,8.30
2019-05-16T19:38:58.677Z,8.17
2019-05-16T19:41:29.346Z,8.11
2019-05-16T19:44:01.112Z,8.12
2019-05-16T19:46:32.203Z,8.26
2019-05-16T19:49:06.351Z,8.24
2019-05-16T19:51:36.792Z,8.19
2019-05-16T19:54:09.736Z,8.12
2019-05-16T19:56:42.616Z,7.98
2019-05-16T19:59:13.759Z,8.12
2019-05-16T20:01:46.361Z,8.12
2019-05-16T20:04:18.519Z,8.14
2019-05-16T20:06:49.299Z,8.16
2019-05-16T20:09:20.248Z,8.20
2019-05-16T20:11:51.569Z,8.17
2019-05-16T20:14:23.132Z,8.15
2019-05-16T20:16:56.658Z,8.21
2019-05-16T20:19:27.635Z,8.21
2019-05-16T20:21:58.620Z,8.26
2019-05-16T20:24:32.238Z,8.29
2019-05-16T20:27:05.325Z,8.22
2019-05-16T20:29:38.244Z,8.02
2019-05-16T20:32:11.453Z,8.04
2019-05-16T20:34:42.564Z,8.09
2019-05-16T20:37:13.647Z,7.92
2019-05-16T20:39:46.618Z,7.99
2019-05-16T20:42:18.234Z,8.13
2019-05-16T20:44:49.982Z,8.08
2019-05-16T20:47:21.007Z,8.04
2019-05-16T20:49:52.688Z,8.01
2019-05-16T20:52:23.827Z,8.06
2019-05-16T20:54:57.635Z,8.08
2019-05-16T20:57:27.904Z,8.06
2019-05-16T20:59:59.070Z,8.08
2019-05-16T21:02:30.331Z,8.10
2019-05-16T21:05:02.012Z,8.00
2019-05-16T21:07:33.131Z,7.96
2019-05-16T21:10:04.344Z,7.98
2019-05-16T21:12:37.302Z,8.12
2019-05-16T21:15:10.271Z,8.15
2019-05-16T21:17:41.342Z,8.04
2019-05-16T21:20:12.193Z,8.18
2019-05-16T21:22:43.247Z,8.15
2019-05-16T21:25:18.572Z,8.19
2019-05-16T21:27:48.846Z,8.14
2019-05-16T21:30:20.080Z,8.13
2019-05-16T21:32:51.250Z,8.18
2019-05-16T21:35:22.300Z,8.17
2019-05-16T21:37:53.416Z,8.08
2019-05-16T21:40:26.530Z,8.12
2019-05-16T21:42:58.783Z,8.06
2019-05-16T21:45:43.156Z,8.18
2019-05-16T21:48:16.756Z,8.12
2019-05-16T21:50:48.805Z,8.14
2019-05-16T21:53:19.889Z,8.11
2019-05-16T21:55:51.300Z,8.13
2019-05-16T21:58:22.684Z,8.16
2019-05-16T22:00:57.879Z,8.17
2019-05-16T22:03:28.592Z,8.12
2019-05-16T22:06:01.578Z,7.98
2019-05-16T22:08:32.928Z,8.10
2019-05-16T22:11:03.900Z,8.15
2019-05-16T22:13:37.023Z,8.02
2019-05-16T22:16:08.359Z,8.09
2019-05-16T22:18:39.083Z,8.19
2019-05-16T22:21:11.374Z,8.27
2019-05-16T22:23:42.887Z,8.25
2019-05-16T22:26:13.823Z,8.30
2019-05-16T22:28:46.722Z,8.32
2019-05-16T22:31:17.950Z,8.35
2019-05-16T22:33:49.980Z,8.25
2019-05-16T22:36:20.932Z,8.14
2019-05-16T22:38:52.736Z,8.19
2019-05-16T22:41:26.528Z,8.18
2019-05-16T22:43:57.690Z,8.23
2019-05-16T22:46:29.330Z,8.18
2019-05-16T22:49:00.679Z,8.18
2019-05-16T22:51:31.933Z,8.11
2019-05-16T22:54:02.973Z,8.22
2019-05-16T22:56:33.970Z,8.26
2019-05-16T22:59:07.057Z,8.33
2019-05-16T23:01:37.843Z,8.21
2019-05-16T23:04:08.880Z,8.11
2019-05-16T23:06:39.659Z,8.16
2019-05-16T23:09:10.830Z,8.12
2019-05-16T23:11:42.127Z,8.15
2019-05-16T23:14:17.083Z,8.13
2019-05-16T23:16:47.637Z,8.18
2019-05-16T23:19:18.654Z,8.14
2019-05-16T23:21:49.887Z,8.20
2019-05-16T23:24:21.141Z,8.15
2019-05-16T23:26:52.416Z,8.15
2019-05-16T23:29:23.999Z,8.16
2019-05-16T23:31:56.446Z,8.14
2019-05-16T23:34:27.764Z,8.05
2019-05-16T23:36:59.366Z,8.11
2019-05-16T23:39:30.041Z,8.13
2019-05-16T23:42:01.634Z,8.17
2019-05-16T23:44:32.629Z,8.06
2019-05-16T23:47:03.636Z,8.03
2019-05-16T23:49:36.664Z,8.03
2019-05-16T23:52:07.646Z,8.08
2019-05-16T23:54:38.703Z,8.04
2019-05-16T23:57:09.839Z,8.00
2019-05-16T23:59:40.587Z,8.01
